createdAt,value
2018-06-15T00:00:10.608Z,99.90
2018-06-15T00:02:39.648Z,99.90
2018-06-15T00:05:08.748Z,99.90
2018-06-15T00:07:38.053Z,99.90
2018-06-15T00:10:07.193Z,99.90
2018-06-15T00:12:36.312Z,99.90
2018-06-15T00:15:05.436Z,99.90
2018-06-15T00:17:34.524Z,99.90
2018-06-15T00:20:03.620Z,99.90
2018-06-15T00:22:32.879Z,99.90
2018-06-15T00:25:02.304Z,99.90
2018-06-15T00:27:31.429Z,99.90
2018-06-15T00:30:00.728Z,99.90
2018-06-15T00:32:29.820Z,99.90
2018-06-15T00:34:58.968Z,99.90
2018-06-15T00:37:28.380Z,99.90
2018-06-15T00:39:58.440Z,99.90
2018-06-15T00:42:27.586Z,99.90
2018-06-15T00:44:56.704Z,99.90
2018-06-15T00:47:26.061Z,99.90
2018-06-15T00:49:55.180Z,99.90
2018-06-15T00:52:24.329Z,99.90
2018-06-15T00:54:53.704Z,99.90
2018-06-15T00:57:43.088Z,99.90
2018-06-15T01:00:12.568Z,99.90
2018-06-15T01:02:41.904Z,99.90
2018-06-15T01:05:10.972Z,99.90
2018-06-15T01:07:40.075Z,99.90
2018-06-15T01:10:09.192Z,99.90
2018-06-15T01:12:38.369Z,99.90
2018-06-15T01:15:08.008Z,99.90
2018-06-15T01:17:37.360Z,99.90
2018-06-15T01:20:06.468Z,99.90
2018-06-15T01:22:35.896Z,99.90
2018-06-15T01:25:05.093Z,99.90
2018-06-15T01:27:34.348Z,99.90
2018-06-15T01:30:04.823Z,99.90
2018-06-15T01:32:33.920Z,99.90
2018-06-15T01:35:02.972Z,99.90
2018-06-15T01:37:32.096Z,99.90
2018-06-15T01:40:01.382Z,99.90
2018-06-15T01:42:30.473Z,99.90
2018-06-15T01:44:59.856Z,99.90
2018-06-15T01:47:28.956Z,99.90
2018-06-15T01:49:58.100Z,99.90
2018-06-15T01:52:27.408Z,99.90
2018-06-15T01:54:56.452Z,99.90
2018-06-15T01:57:25.576Z,99.90
2018-06-15T01:59:54.992Z,99.90
2018-06-15T02:02:24.088Z,99.90
2018-06-15T02:04:53.300Z,99.90
2018-06-15T02:07:22.640Z,99.90
2018-06-15T02:09:52.060Z,99.90
2018-06-15T02:12:21.176Z,99.90
2018-06-15T02:14:50.563Z,99.90
2018-06-15T02:17:19.712Z,99.90
2018-06-15T02:19:48.829Z,99.90
2018-06-15T02:22:17.950Z,99.90
2018-06-15T02:24:47.084Z,99.90
2018-06-15T02:27:16.168Z,99.90
2018-06-15T02:29:45.549Z,99.90
2018-06-15T02:32:14.676Z,99.90
2018-06-15T02:34:43.772Z,99.90
2018-06-15T02:37:12.976Z,99.90
2018-06-15T02:39:42.024Z,99.90
2018-06-15T02:42:11.328Z,99.90
2018-06-15T02:44:40.760Z,99.90
2018-06-15T02:47:09.856Z,99.90
2018-06-15T02:49:39.000Z,99.90
2018-06-15T02:52:08.295Z,99.90
2018-06-15T02:54:37.448Z,99.90
2018-06-15T02:57:06.604Z,99.90
2018-06-15T02:59:35.969Z,99.90
2018-06-15T03:02:05.522Z,99.90
2018-06-15T03:04:34.696Z,99.90
2018-06-15T03:07:03.897Z,99.90
2018-06-15T03:09:33.012Z,99.90
2018-06-15T03:12:02.108Z,99.90
2018-06-15T03:14:31.656Z,99.90
2018-06-15T03:17:00.807Z,99.90
2018-06-15T03:19:30.144Z,99.90
2018-06-15T03:21:59.215Z,99.90
2018-06-15T03:24:28.353Z,99.90
2018-06-15T03:26:57.476Z,99.90
2018-06-15T03:29:26.584Z,99.90
2018-06-15T03:31:55.825Z,99.90
2018-06-15T03:34:24.921Z,99.90
2018-06-15T03:36:54.321Z,99.90
2018-06-15T03:39:23.375Z,99.90
2018-06-15T03:41:52.454Z,99.90
2018-06-15T03:44:22.025Z,99.90
2018-06-15T03:46:51.112Z,99.90
2018-06-15T03:49:20.197Z,99.90
2018-06-15T03:51:50.178Z,99.90
2018-06-15T03:54:19.280Z,99.90
2018-06-15T03:56:48.593Z,99.90
2018-06-15T03:59:17.992Z,99.90
2018-06-15T04:01:47.088Z,99.90
2018-06-15T04:04:16.213Z,99.90
2018-06-15T04:06:45.308Z,99.90
2018-06-15T04:09:14.504Z,99.90
2018-06-15T04:11:43.616Z,99.90
2018-06-15T04:14:13.824Z,99.90
2018-06-15T04:16:42.920Z,99.90
2018-06-15T04:19:12.017Z,99.90
2018-06-15T04:21:41.364Z,99.90
2018-06-15T04:24:10.484Z,99.90
2018-06-15T04:26:39.708Z,99.90
2018-06-15T04:29:09.114Z,99.90
2018-06-15T04:31:38.993Z,99.90
2018-06-15T04:34:08.096Z,99.90
2018-06-15T04:36:37.188Z,99.90
2018-06-15T04:39:08.827Z,99.90
2018-06-15T04:41:37.990Z,99.90
2018-06-15T04:44:07.221Z,99.90
2018-06-15T04:46:36.416Z,99.90
2018-06-15T04:49:05.652Z,99.90
2018-06-15T04:51:34.733Z,99.90
2018-06-15T04:54:04.306Z,99.90
2018-06-15T04:56:33.464Z,99.90
2018-06-15T04:59:02.520Z,99.90
2018-06-15T05:01:32.500Z,99.90
2018-06-15T05:04:01.591Z,99.90
2018-06-15T05:06:30.684Z,99.90
2018-06-15T05:09:00.113Z,99.90
2018-06-15T05:11:29.212Z,99.90
2018-06-15T05:13:58.646Z,99.90
2018-06-15T05:16:28.597Z,99.90
2018-06-15T05:18:58.546Z,99.90
2018-06-15T05:21:27.656Z,99.90
2018-06-15T05:23:57.732Z,99.90
2018-06-15T05:26:27.573Z,99.90
2018-06-15T05:28:57.284Z,99.90
2018-06-15T05:31:27.260Z,99.90
2018-06-15T05:33:57.361Z,99.90
2018-06-15T05:36:27.105Z,99.90
2018-06-15T05:38:56.817Z,99.90
2018-06-15T05:41:26.443Z,99.90
2018-06-15T05:43:56.384Z,99.90
2018-06-15T05:46:26.133Z,99.90
2018-06-15T05:48:55.857Z,99.90
2018-06-15T05:51:25.661Z,99.90
2018-06-15T05:53:55.512Z,99.40
2018-06-15T05:56:25.886Z,98.90
2018-06-15T05:58:56.388Z,97.30
2018-06-15T06:01:26.177Z,97.50
2018-06-15T06:03:55.964Z,96.10
2018-06-15T06:06:25.033Z,95.20
2018-06-15T06:08:54.845Z,95.40
2018-06-15T06:11:24.985Z,96.20
2018-06-15T06:13:54.872Z,96.70
2018-06-15T06:16:23.988Z,97.00
2018-06-15T06:18:53.120Z,97.20
2018-06-15T06:21:23.060Z,96.70
2018-06-15T06:23:52.885Z,96.70
2018-06-15T06:26:22.833Z,96.50
2018-06-15T06:28:53.881Z,96.70
2018-06-15T06:31:23.680Z,95.80
2018-06-15T06:33:53.890Z,95.30
2018-06-15T06:36:23.615Z,95.70
2018-06-15T06:38:53.385Z,95.50
2018-06-15T06:41:23.744Z,95.10
2018-06-15T06:43:53.449Z,95.40
2018-06-15T06:46:23.053Z,95.10
2018-06-15T06:48:52.752Z,95.40
2018-06-15T06:51:22.213Z,94.80
2018-06-15T06:53:52.209Z,94.30
2018-06-15T06:56:22.273Z,93.90
2018-06-15T06:58:52.067Z,93.70
2018-06-15T07:01:22.159Z,93.50
2018-06-15T07:03:52.005Z,92.80
2018-06-15T07:06:22.221Z,92.00
2018-06-15T07:08:51.824Z,92.60
2018-06-15T07:11:21.483Z,91.80
2018-06-15T07:13:51.192Z,91.10
2018-06-15T07:16:20.953Z,90.60
2018-06-15T07:18:50.701Z,91.00
2018-06-15T07:21:21.008Z,90.60
2018-06-15T07:23:50.900Z,90.10
2018-06-15T07:26:21.068Z,90.50
2018-06-15T07:28:50.668Z,91.00
2018-06-15T07:31:20.592Z,91.30
2018-06-15T07:33:50.795Z,91.10
2018-06-15T07:36:21.565Z,90.90
2018-06-15T07:38:51.349Z,88.00
2018-06-15T07:41:21.368Z,88.80
2018-06-15T07:43:51.854Z,80.90
2018-06-15T07:46:22.000Z,80.00
2018-06-15T07:48:51.932Z,78.30
2018-06-15T07:51:21.872Z,74.90
2018-06-15T07:53:51.950Z,70.30
2018-06-15T07:56:21.904Z,66.50
2018-06-15T07:58:51.856Z,62.70
2018-06-15T08:01:22.282Z,62.20
2018-06-15T08:03:59.381Z,60.70
2018-06-15T08:06:29.408Z,59.80
2018-06-15T08:08:59.970Z,57.90
2018-06-15T08:11:30.209Z,56.60
2018-06-15T08:13:59.456Z,56.80
2018-06-15T08:16:29.562Z,56.20
2018-06-15T08:18:59.416Z,56.60
2018-06-15T08:21:29.541Z,58.50
2018-06-15T08:23:59.461Z,62.00
2018-06-15T08:26:29.516Z,70.10
2018-06-15T08:28:59.891Z,71.90
2018-06-15T08:31:29.808Z,75.20
2018-06-15T08:33:59.517Z,77.50
2018-06-15T08:36:29.546Z,73.90
2018-06-15T08:38:59.628Z,69.50
2018-06-15T08:41:29.662Z,66.90
2018-06-15T08:43:59.735Z,70.00
2018-06-15T08:46:29.696Z,69.90
2018-06-15T08:48:59.668Z,71.20
2018-06-15T08:51:29.612Z,72.50
2018-06-15T08:53:59.780Z,66.90
2018-06-15T08:56:29.981Z,65.10
2018-06-15T08:58:59.133Z,70.10
2018-06-15T09:01:28.860Z,64.70
2018-06-15T09:03:59.173Z,61.70
2018-06-15T09:06:28.264Z,59.90
2018-06-15T09:08:58.065Z,58.20
2018-06-15T09:11:28.133Z,52.30
2018-06-15T09:13:57.896Z,50.50
2018-06-15T09:16:27.935Z,48.10
2018-06-15T09:18:57.780Z,45.20
2018-06-15T09:21:27.740Z,51.10
2018-06-15T09:23:57.769Z,55.90
2018-06-15T09:26:28.288Z,53.60
2018-06-15T09:28:58.376Z,50.90
2018-06-15T09:31:29.439Z,50.10
2018-06-15T09:33:59.237Z,50.70
2018-06-15T09:36:29.225Z,51.70
2018-06-15T09:38:58.847Z,50.80
2018-06-15T09:41:28.795Z,49.80
2018-06-15T09:43:59.220Z,52.20
2018-06-15T09:46:28.956Z,50.70
2018-06-15T09:48:59.312Z,53.50
2018-06-15T09:51:29.458Z,53.10
2018-06-15T09:53:59.359Z,51.40
2018-06-15T09:56:29.264Z,50.60
2018-06-15T09:58:59.437Z,51.30
2018-06-15T10:01:29.090Z,52.40
2018-06-15T10:03:59.693Z,52.90
2018-06-15T10:06:30.528Z,52.40
2018-06-15T10:09:00.296Z,52.50
2018-06-15T10:11:30.800Z,55.40
2018-06-15T10:14:01.092Z,57.70
2018-06-15T10:16:32.008Z,57.70
2018-06-15T10:19:02.027Z,56.80
2018-06-15T10:21:32.046Z,52.80
2018-06-15T10:24:01.981Z,48.50
2018-06-15T10:26:31.901Z,46.80
2018-06-15T10:29:01.944Z,45.80
2018-06-15T10:31:32.547Z,42.30
2018-06-15T10:34:02.745Z,47.90
2018-06-15T10:36:33.200Z,51.30
2018-06-15T10:39:02.875Z,53.60
2018-06-15T10:41:32.613Z,46.10
2018-06-15T10:44:02.816Z,43.00
2018-06-15T10:46:32.929Z,50.40
2018-06-15T10:49:03.488Z,55.30
2018-06-15T10:51:33.540Z,56.00
2018-06-15T10:54:03.357Z,50.70
2018-06-15T10:56:33.154Z,48.10
2018-06-15T10:59:03.018Z,47.60
2018-06-15T11:01:33.088Z,46.40
2018-06-15T11:04:02.852Z,47.00
2018-06-15T11:06:32.680Z,48.30
2018-06-15T11:09:02.655Z,49.50
2018-06-15T11:11:32.289Z,51.50
2018-06-15T11:14:02.085Z,53.50
2018-06-15T11:16:32.141Z,56.50
2018-06-15T11:19:02.142Z,54.60
2018-06-15T11:21:31.850Z,55.60
2018-06-15T11:24:01.801Z,55.40
2018-06-15T11:26:31.313Z,57.30
2018-06-15T11:29:00.964Z,57.10
2018-06-15T11:31:30.640Z,56.90
2018-06-15T11:34:00.297Z,59.60
2018-06-15T11:36:30.352Z,59.90
2018-06-15T11:39:00.428Z,60.60
2018-06-15T11:41:29.640Z,59.30
2018-06-15T11:43:59.412Z,59.10
2018-06-15T11:46:28.599Z,61.50
2018-06-15T11:48:58.451Z,61.70
2018-06-15T11:51:27.660Z,62.30
2018-06-15T11:53:57.817Z,59.20
2018-06-15T11:56:28.224Z,57.40
2018-06-15T11:58:58.027Z,57.30
2018-06-15T12:01:28.034Z,58.00
2018-06-15T12:03:57.885Z,60.00
2018-06-15T12:06:29.230Z,60.20
2018-06-15T12:08:59.677Z,58.30
2018-06-15T12:11:29.770Z,58.50
2018-06-15T12:14:01.511Z,60.20
2018-06-15T12:16:31.685Z,58.60
2018-06-15T12:19:03.622Z,58.20
2018-06-15T12:21:34.679Z,59.80
2018-06-15T12:24:05.182Z,57.30
2018-06-15T12:26:35.620Z,57.10
2018-06-15T12:29:05.639Z,57.00
2018-06-15T12:31:36.617Z,58.80
2018-06-15T12:34:05.935Z,59.10
2018-06-15T12:36:37.270Z,60.10
2018-06-15T12:39:08.945Z,61.50
2018-06-15T12:41:39.488Z,63.00
2018-06-15T12:44:10.521Z,65.50
2018-06-15T12:46:40.775Z,60.70
2018-06-15T12:49:11.009Z,60.10
2018-06-15T12:51:41.006Z,59.80
2018-06-15T12:54:10.996Z,61.00
2018-06-15T12:56:40.771Z,59.10
2018-06-15T12:59:11.247Z,60.00
2018-06-15T13:01:41.326Z,59.30
2018-06-15T13:04:11.566Z,59.30
2018-06-15T13:06:41.663Z,58.60
2018-06-15T13:09:12.246Z,58.70
2018-06-15T13:11:42.468Z,59.20
2018-06-15T13:14:12.617Z,59.10
2018-06-15T13:16:42.518Z,58.30
2018-06-15T13:19:12.390Z,59.00
2018-06-15T13:21:42.511Z,57.20
2018-06-15T13:24:13.639Z,58.70
2018-06-15T13:26:43.744Z,57.60
2018-06-15T13:29:13.008Z,57.90
2018-06-15T13:31:42.277Z,56.90
2018-06-15T13:34:12.305Z,56.00
2018-06-15T13:36:42.339Z,56.30
2018-06-15T13:39:14.080Z,56.40
2018-06-15T13:41:44.293Z,55.40
2018-06-15T13:44:15.136Z,55.80
2018-06-15T13:46:44.310Z,56.60
2018-06-15T13:49:13.517Z,58.60
2018-06-15T13:51:43.011Z,57.80
2018-06-15T13:54:12.961Z,58.30
2018-06-15T13:56:43.357Z,57.60
2018-06-15T13:59:13.096Z,56.80
2018-06-15T14:01:43.268Z,56.50
2018-06-15T14:04:12.976Z,56.80
2018-06-15T14:06:43.316Z,56.70
2018-06-15T14:09:12.926Z,55.80
2018-06-15T14:11:42.773Z,55.90
2018-06-15T14:14:12.656Z,56.60
2018-06-15T14:16:42.449Z,57.70
2018-06-15T14:19:12.465Z,57.70
2018-06-15T14:21:42.461Z,56.50
2018-06-15T14:24:12.336Z,58.60
2018-06-15T14:26:42.005Z,59.60
2018-06-15T14:29:11.956Z,60.80
2018-06-15T14:31:41.845Z,59.60
2018-06-15T14:34:11.953Z,61.90
2018-06-15T14:36:42.184Z,66.80
2018-06-15T14:39:12.556Z,62.70
2018-06-15T14:41:42.824Z,65.00
2018-06-15T14:44:12.639Z,61.60
2018-06-15T14:46:41.789Z,61.10
2018-06-15T14:49:11.658Z,61.40
2018-06-15T14:51:41.687Z,59.90
2018-06-15T14:54:12.744Z,61.00
2018-06-15T14:56:43.702Z,60.90
2018-06-15T14:59:13.700Z,60.10
2018-06-15T15:01:43.940Z,62.20
2018-06-15T15:04:13.797Z,62.90
2018-06-15T15:06:42.940Z,64.30
2018-06-15T15:09:12.844Z,61.90
2018-06-15T15:11:41.957Z,61.60
2018-06-15T15:14:11.945Z,62.90
2018-06-15T15:16:41.684Z,64.20
2018-06-15T15:19:11.658Z,63.70
2018-06-15T15:21:41.364Z,64.60
2018-06-15T15:24:10.546Z,67.50
2018-06-15T15:26:39.791Z,65.80
2018-06-15T15:29:08.904Z,68.30
2018-06-15T15:31:38.005Z,65.40
2018-06-15T15:34:08.910Z,66.40
2018-06-15T15:36:39.024Z,67.80
2018-06-15T15:39:10.196Z,68.20
2018-06-15T15:41:39.464Z,68.60
2018-06-15T15:44:09.921Z,67.60
2018-06-15T15:46:39.848Z,68.00
2018-06-15T15:49:09.828Z,69.10
2018-06-15T15:51:38.956Z,68.70
2018-06-15T15:54:08.088Z,68.40
2018-06-15T15:56:37.499Z,69.00
2018-06-15T15:59:06.650Z,69.60
2018-06-15T16:01:35.812Z,69.60
2018-06-15T16:04:05.108Z,70.50
2018-06-15T16:06:34.236Z,71.20
2018-06-15T16:09:03.461Z,71.70
2018-06-15T16:11:33.029Z,73.20
2018-06-15T16:14:02.344Z,70.70
2018-06-15T16:16:32.148Z,71.70
2018-06-15T16:19:01.252Z,72.10
2018-06-15T16:21:30.346Z,71.70
2018-06-15T16:23:59.752Z,71.30
2018-06-15T16:26:28.832Z,71.90
2018-06-15T16:28:57.992Z,74.20
2018-06-15T16:31:27.096Z,73.00
2018-06-15T16:33:56.337Z,75.50
2018-06-15T16:36:26.148Z,74.80
2018-06-15T16:38:55.267Z,73.90
2018-06-15T16:41:24.412Z,76.20
2018-06-15T16:43:53.536Z,75.30
2018-06-15T16:46:22.620Z,74.50
2018-06-15T16:48:51.829Z,76.10
2018-06-15T16:51:21.704Z,74.50
2018-06-15T16:53:50.828Z,75.10
2018-06-15T16:56:20.877Z,73.50
2018-06-15T16:58:50.040Z,76.90
2018-06-15T17:01:19.112Z,77.90
2018-06-15T17:03:48.953Z,78.20
2018-06-15T17:06:18.057Z,78.20
2018-06-15T17:08:47.228Z,78.30
2018-06-15T17:11:17.317Z,79.90
2018-06-15T17:13:47.032Z,79.90
2018-06-15T17:16:16.896Z,80.30
2018-06-15T17:18:46.512Z,80.80
2018-06-15T17:21:15.561Z,83.20
2018-06-15T17:23:44.740Z,83.40
2018-06-15T17:26:13.841Z,84.30
2018-06-15T17:28:43.504Z,84.90
2018-06-15T17:31:12.688Z,84.60
2018-06-15T17:33:41.765Z,86.70
2018-06-15T17:36:10.896Z,87.70
2018-06-15T17:38:39.956Z,89.40
2018-06-15T17:41:09.943Z,88.20
2018-06-15T17:43:39.760Z,90.00
2018-06-15T17:46:08.956Z,90.10
2018-06-15T17:48:39.142Z,91.10
2018-06-15T17:51:08.302Z,90.30
2018-06-15T17:53:37.420Z,90.10
2018-06-15T17:56:06.807Z,90.20
2018-06-15T17:58:35.916Z,91.20
2018-06-15T18:01:05.809Z,90.90
2018-06-15T18:03:34.944Z,90.80
2018-06-15T18:06:04.028Z,90.90
2018-06-15T18:08:33.161Z,91.30
2018-06-15T18:11:02.292Z,90.70
2018-06-15T18:13:31.696Z,91.10
2018-06-15T18:16:00.762Z,91.60
2018-06-15T18:18:29.873Z,91.70
2018-06-15T18:20:59.053Z,91.10
2018-06-15T18:23:28.201Z,91.20
2018-06-15T18:25:57.757Z,91.20
2018-06-15T18:28:26.820Z,91.90
2018-06-15T18:30:56.035Z,92.00
2018-06-15T18:33:25.408Z,91.00
2018-06-15T18:35:54.750Z,91.00
2018-06-15T18:38:24.672Z,90.70
2018-06-15T18:40:53.937Z,90.30
2018-06-15T18:43:23.031Z,90.90
2018-06-15T18:45:52.104Z,90.70
2018-06-15T18:48:21.168Z,91.00
2018-06-15T18:50:50.369Z,91.30
2018-06-15T18:53:19.760Z,90.90
2018-06-15T18:55:49.845Z,91.10
2018-06-15T18:58:18.997Z,92.20
2018-06-15T19:00:48.093Z,92.80
2018-06-15T19:03:17.892Z,93.50
2018-06-15T19:05:47.612Z,93.80
2018-06-15T19:08:16.724Z,93.00
2018-06-15T19:10:45.845Z,93.10
2018-06-15T19:13:15.440Z,93.70
2018-06-15T19:15:44.636Z,94.10
2018-06-15T19:18:13.809Z,94.50
2018-06-15T19:20:42.951Z,94.60
2018-06-15T19:23:12.792Z,94.70
2018-06-15T19:25:41.940Z,95.00
2018-06-15T19:28:11.005Z,94.80
2018-06-15T19:30:41.207Z,94.80
2018-06-15T19:33:10.303Z,94.70
2018-06-15T19:35:39.422Z,94.60
2018-06-15T19:38:08.744Z,94.40
2018-06-15T19:40:37.816Z,94.30
2018-06-15T19:43:07.095Z,94.60
2018-06-15T19:45:36.490Z,94.60
2018-06-15T19:48:05.717Z,94.60
2018-06-15T19:50:34.812Z,95.10
2018-06-15T19:53:04.116Z,95.40
2018-06-15T19:55:33.309Z,95.40
2018-06-15T19:58:02.424Z,95.20
2018-06-15T20:00:33.061Z,94.60
2018-06-15T20:03:02.921Z,95.40
2018-06-15T20:05:32.018Z,95.70
2018-06-15T20:08:01.168Z,96.20
2018-06-15T20:10:30.572Z,96.40
2018-06-15T20:12:59.703Z,96.40
2018-06-15T20:15:28.838Z,96.60
2018-06-15T20:17:57.988Z,96.50
2018-06-15T20:20:27.864Z,96.50
2018-06-15T20:22:56.972Z,96.60
2018-06-15T20:25:26.086Z,96.10
2018-06-15T20:27:55.520Z,96.40
2018-06-15T20:30:24.616Z,96.50
2018-06-15T20:32:53.776Z,96.60
2018-06-15T20:35:23.173Z,96.80
2018-06-15T20:37:52.310Z,96.10
2018-06-15T20:40:21.512Z,96.10
2018-06-15T20:42:50.821Z,96.10
2018-06-15T20:45:20.035Z,96.30
2018-06-15T20:47:49.164Z,96.70
2018-06-15T20:50:18.296Z,97.10
2018-06-15T20:52:47.408Z,97.40
2018-06-15T20:55:16.518Z,97.60
2018-06-15T20:57:45.700Z,97.80
2018-06-15T21:00:14.809Z,97.70
2018-06-15T21:02:43.932Z,97.60
2018-06-15T21:05:13.144Z,97.50
2018-06-15T21:07:42.301Z,97.50
2018-06-15T21:10:11.577Z,97.60
2018-06-15T21:12:40.944Z,97.20
2018-06-15T21:15:10.664Z,97.20
2018-06-15T21:17:40.012Z,97.30
2018-06-15T21:20:09.136Z,97.30
2018-06-15T21:22:38.844Z,97.40
2018-06-15T21:25:08.324Z,97.60
2018-06-15T21:27:37.486Z,97.40
2018-06-15T21:30:07.484Z,97.40
2018-06-15T21:32:36.577Z,97.70
2018-06-15T21:35:05.816Z,97.10
2018-06-15T21:37:34.944Z,96.90
2018-06-15T21:40:04.760Z,97.30
2018-06-15T21:42:34.547Z,97.50
2018-06-15T21:45:03.728Z,97.30
2018-06-15T21:47:32.845Z,97.60
2018-06-15T21:50:01.968Z,98.20
2018-06-15T21:52:31.576Z,97.90
2018-06-15T21:55:00.879Z,98.20
2018-06-15T21:57:29.969Z,97.80
2018-06-15T21:59:59.128Z,98.40
2018-06-15T22:02:28.225Z,98.30
2018-06-15T22:04:57.892Z,98.30
2018-06-15T22:07:27.381Z,98.70
2018-06-15T22:09:56.438Z,98.70
2018-06-15T22:12:25.509Z,98.70
2018-06-15T22:14:54.724Z,98.80
2018-06-15T22:17:23.833Z,98.70
2018-06-15T22:19:53.164Z,98.90
2018-06-15T22:22:22.505Z,99.00
2018-06-15T22:24:51.627Z,99.10
2018-06-15T22:27:20.754Z,99.30
2018-06-15T22:29:49.941Z,99.30
2018-06-15T22:32:19.353Z,99.40
2018-06-15T22:34:48.392Z,99.60
2018-06-15T22:37:17.708Z,99.80
2018-06-15T22:39:46.860Z,99.80
2018-06-15T22:42:15.900Z,99.70
2018-06-15T22:44:45.713Z,99.70
2018-06-15T22:47:14.865Z,99.90
2018-06-15T22:49:43.916Z,99.90
2018-06-15T22:52:13.056Z,99.90
2018-06-15T22:54:42.138Z,99.90
2018-06-15T22:57:11.316Z,99.90
2018-06-15T22:59:40.452Z,99.90
2018-06-15T23:02:09.585Z,99.90
2018-06-15T23:04:38.695Z,99.90
2018-06-15T23:07:08.032Z,99.90
2018-06-15T23:09:37.400Z,99.90
2018-06-15T23:12:06.568Z,99.90
2018-06-15T23:14:36.378Z,99.90
2018-06-15T23:17:05.401Z,99.90
2018-06-15T23:19:35.437Z,99.90
2018-06-15T23:22:04.891Z,99.90
2018-06-15T23:24:34.004Z,99.90
2018-06-15T23:27:03.082Z,99.90
2018-06-15T23:29:32.382Z,99.90
2018-06-15T23:32:01.537Z,99.90
2018-06-15T23:34:30.821Z,99.90
2018-06-15T23:36:59.920Z,99.90
2018-06-15T23:39:29.016Z,99.90
2018-06-15T23:41:58.112Z,99.90
2018-06-15T23:44:27.268Z,99.90
2018-06-15T23:46:56.696Z,99.90
2018-06-15T23:49:25.788Z,99.90
2018-06-15T23:51:55.090Z,99.90
2018-06-15T23:54:24.212Z,99.90
2018-06-15T23:56:53.300Z,99.90
2018-06-15T23:59:22.716Z,99.90
